Time;durP1;ratioP1;P1;durP2;ratioP2;P2;SDS_P1;SDS_P2;PMS_P1;PMS_P2;Temp;Humidity;BMP_temperature;BMP_pressure;BME280_temperature;BME280_humidity;BME280_pressure;Samples;Min_cycle;Max_cycle;Signal;HPM_P1;HPM_P2
2024/01/19 00:01:49;;;;;;;29.00;17.07;;;;;;;;;;5017858;28;20469;-82
2024/01/19 00:04:16;;;;;;;28.07;16.13;;;;;;;;;;5018517;28;20489;-85
2024/01/19 00:06:43;;;;;;;31.33;16.50;;;;;;;;;;4993285;28;20485;-85
2024/01/19 00:09:11;;;;;;;28.47;16.63;;;;;;;;;;4985254;28;20694;-85
2024/01/19 00:11:38;;;;;;;26.13;16.70;;;;;;;;;;5005913;28;20473;-87
2024/01/19 00:14:05;;;;;;;25.40;16.40;;;;;;;;;;5009139;28;20465;-85
2024/01/19 00:16:32;;;;;;;30.10;17.43;;;;;;;;;;5013494;28;20479;-86
2024/01/19 00:18:59;;;;;;;32.50;17.23;;;;;;;;;;5010942;28;20466;-85
2024/01/19 00:21:27;;;;;;;33.33;16.37;;;;;;;;;;5009996;28;21281;-85
2024/01/19 00:23:54;;;;;;;27.40;16.37;;;;;;;;;;4992762;28;20520;-86
2024/01/19 00:26:21;;;;;;;30.80;18.40;;;;;;;;;;5010973;28;20460;-85
2024/01/19 00:28:48;;;;;;;25.17;16.23;;;;;;;;;;5024777;28;20455;-86
2024/01/19 00:31:16;;;;;;;26.30;17.20;;;;;;;;;;5033766;28;20553;-86
2024/01/19 00:33:44;;;;;;;29.37;16.70;;;;;;;;;;5050202;28;20441;-86
2024/01/19 00:36:11;;;;;;;34.10;18.03;;;;;;;;;;5049252;28;21537;-87
2024/01/19 00:38:38;;;;;;;29.23;17.00;;;;;;;;;;5043391;28;20456;-84
2024/01/19 00:41:05;;;;;;;35.70;18.63;;;;;;;;;;5036528;28;21998;-85
2024/01/19 00:43:32;;;;;;;26.30;15.73;;;;;;;;;;5029166;28;20462;-85
2024/01/19 00:45:59;;;;;;;31.40;17.40;;;;;;;;;;5041962;28;20484;-86
2024/01/19 00:48:26;;;;;;;30.47;16.60;;;;;;;;;;5034350;28;20461;-85
2024/01/19 00:50:54;;;;;;;30.87;17.03;;;;;;;;;;5029889;28;20478;-86
2024/01/19 00:53:21;;;;;;;34.47;20.10;;;;;;;;;;5025399;28;21063;-85
2024/01/19 00:55:48;;;;;;;35.13;17.90;;;;;;;;;;5021051;28;20466;-84
2024/01/19 00:58:15;;;;;;;34.13;18.20;;;;;;;;;;5003446;28;20454;-84
2024/01/19 01:00:42;;;;;;;31.60;18.23;;;;;;;;;;5021475;28;20483;-86
2024/01/19 01:03:09;;;;;;;28.87;17.30;;;;;;;;;;5019185;28;20498;-86
2024/01/19 01:05:36;;;;;;;32.63;17.27;;;;;;;;;;5015835;28;20491;-86
2024/01/19 01:08:04;;;;;;;36.47;19.13;;;;;;;;;;5016580;28;20497;-85
2024/01/19 01:10:31;;;;;;;28.77;17.00;;;;;;;;;;5019526;28;20476;-86
2024/01/19 01:13:01;;;;;;;31.13;17.53;;;;;;;;;;5018329;28;20462;-85
2024/01/19 01:15:28;;;;;;;34.80;18.30;;;;;;;;;;5023001;28;20467;-85
2024/01/19 01:17:55;;;;;;;28.83;17.37;;;;;;;;;;5021852;28;20468;-86
2024/01/19 01:20:22;;;;;;;29.60;18.00;;;;;;;;;;5017238;28;20486;-86
2024/01/19 01:22:49;;;;;;;27.80;15.50;;;;;;;;;;5010633;28;20459;-86
2024/01/19 01:25:16;;;;;;;29.83;15.67;;;;;;;;;;5018895;28;20474;-85
2024/01/19 01:27:43;;;;;;;28.90;16.07;;;;;;;;;;5017626;28;20458;-85
2024/01/19 01:30:10;;;;;;;35.27;16.80;;;;;;;;;;4991823;28;21368;-86
2024/01/19 01:32:38;;;;;;;36.03;16.40;;;;;;;;;;5006296;28;20437;-85
2024/01/19 01:35:05;;;;;;;36.37;17.33;;;;;;;;;;5018631;28;20479;-85
2024/01/19 01:37:32;;;;;;;32.80;17.50;;;;;;;;;;5019748;28;20450;-86
2024/01/19 01:39:59;;;;;;;33.57;17.43;;;;;;;;;;5017008;28;20474;-84
2024/01/19 01:42:26;;;;;;;32.47;17.10;;;;;;;;;;5015040;28;20458;-86
2024/01/19 01:44:53;;;;;;;29.40;16.60;;;;;;;;;;5019122;28;20494;-85
2024/01/19 01:47:21;;;;;;;38.00;18.27;;;;;;;;;;5002034;28;20541;-84
2024/01/19 01:49:48;;;;;;;32.80;18.33;;;;;;;;;;5018160;28;20513;-85
2024/01/19 01:52:15;;;;;;;39.50;18.73;;;;;;;;;;5018912;28;20450;-85
2024/01/19 01:54:43;;;;;;;31.30;17.00;;;;;;;;;;5019302;28;20544;-87
2024/01/19 01:57:10;;;;;;;29.07;15.97;;;;;;;;;;5027826;28;20467;-86
2024/01/19 01:59:37;;;;;;;30.10;15.73;;;;;;;;;;5030233;28;20472;-85
2024/01/19 02:02:05;;;;;;;28.73;15.97;;;;;;;;;;5033763;28;20461;-86
2024/01/19 02:04:33;;;;;;;33.03;17.00;;;;;;;;;;5008564;28;20450;-85
2024/01/19 02:07:00;;;;;;;32.37;17.30;;;;;;;;;;5017716;28;21918;-86
2024/01/19 02:09:28;;;;;;;37.07;18.10;;;;;;;;;;5011453;28;20511;-86
2024/01/19 02:11:55;;;;;;;37.20;17.43;;;;;;;;;;5015042;28;20458;-85
2024/01/19 02:14:22;;;;;;;37.73;18.57;;;;;;;;;;4997760;28;20455;-86
2024/01/19 02:16:49;;;;;;;40.53;19.20;;;;;;;;;;4990169;28;20464;-84
2024/01/19 02:19:16;;;;;;;37.47;20.30;;;;;;;;;;5007161;28;20537;-85
2024/01/19 02:21:44;;;;;;;34.37;17.10;;;;;;;;;;5011718;28;20574;-86
2024/01/19 02:24:12;;;;;;;39.80;20.17;;;;;;;;;;5013724;28;20467;-87
2024/01/19 02:26:39;;;;;;;36.20;17.40;;;;;;;;;;5015103;28;20497;-86
2024/01/19 02:29:06;;;;;;;38.47;19.97;;;;;;;;;;5012509;28;20575;-85
2024/01/19 02:31:33;;;;;;;35.77;17.50;;;;;;;;;;5013456;28;20473;-85
2024/01/19 02:34:01;;;;;;;37.10;20.67;;;;;;;;;;5015408;28;20458;-85
2024/01/19 02:36:28;;;;;;;34.37;18.50;;;;;;;;;;5013116;28;20581;-84
2024/01/19 02:38:55;;;;;;;35.97;19.40;;;;;;;;;;4994903;28;20498;-84
2024/01/19 02:41:22;;;;;;;38.43;19.13;;;;;;;;;;4998974;28;20466;-85
2024/01/19 02:43:49;;;;;;;35.17;19.43;;;;;;;;;;4998721;28;20820;-84
2024/01/19 02:46:18;;;;;;;35.23;19.70;;;;;;;;;;4999158;28;20474;-84
2024/01/19 02:48:45;;;;;;;31.00;16.90;;;;;;;;;;5009484;28;20440;-87
2024/01/19 02:51:13;;;;;;;35.57;18.73;;;;;;;;;;4999184;28;20449;-84
2024/01/19 02:53:40;;;;;;;37.00;18.30;;;;;;;;;;5016795;28;20482;-84
2024/01/19 02:56:07;;;;;;;32.03;18.83;;;;;;;;;;4999237;28;20466;-86
2024/01/19 02:58:35;;;;;;;38.00;18.53;;;;;;;;;;5015817;28;20488;-85
2024/01/19 03:01:02;;;;;;;42.90;19.10;;;;;;;;;;4997390;28;20832;-83
2024/01/19 03:03:29;;;;;;;32.33;18.20;;;;;;;;;;5013520;28;20473;-85
2024/01/19 03:05:57;;;;;;;33.90;18.67;;;;;;;;;;5013833;28;20492;-85
2024/01/19 03:08:24;;;;;;;34.30;18.10;;;;;;;;;;5013917;28;20521;-84
2024/01/19 03:10:51;;;;;;;33.47;17.23;;;;;;;;;;4997701;28;20930;-86
2024/01/19 03:13:18;;;;;;;28.87;15.20;;;;;;;;;;5013635;28;20459;-86
2024/01/19 03:15:46;;;;;;;34.60;19.13;;;;;;;;;;5011622;28;21123;-84
2024/01/19 03:18:13;;;;;;;34.60;18.73;;;;;;;;;;4997449;28;20471;-85
2024/01/19 03:20:40;;;;;;;30.50;17.77;;;;;;;;;;4996882;28;20470;-83
2024/01/19 03:23:08;;;;;;;30.10;16.30;;;;;;;;;;5013789;28;20494;-86
2024/01/19 03:25:35;;;;;;;28.37;15.23;;;;;;;;;;4994828;28;20516;-83
2024/01/19 03:28:02;;;;;;;36.57;17.07;;;;;;;;;;5011580;28;20458;-86
2024/01/19 03:30:29;;;;;;;28.50;15.97;;;;;;;;;;5011143;28;20474;-86
2024/01/19 03:32:56;;;;;;;34.47;17.47;;;;;;;;;;5012774;28;20461;-85
2024/01/19 03:35:25;;;;;;;31.37;17.00;;;;;;;;;;5012600;28;20473;-85
2024/01/19 03:37:52;;;;;;;32.30;16.13;;;;;;;;;;4994690;28;20511;-84
2024/01/19 03:40:19;;;;;;;33.03;17.83;;;;;;;;;;5010551;28;20477;-85
2024/01/19 03:42:47;;;;;;;29.73;16.03;;;;;;;;;;4993925;28;20456;-85
2024/01/19 03:45:14;;;;;;;36.07;18.00;;;;;;;;;;4997410;28;20467;-85
2024/01/19 03:47:42;;;;;;;27.90;17.30;;;;;;;;;;5012169;28;20459;-84
2024/01/19 03:50:09;;;;;;;30.00;15.53;;;;;;;;;;4996174;28;20545;-86
2024/01/19 03:52:40;;;;;;;29.03;16.03;;;;;;;;;;5014393;28;20456;-85
2024/01/19 03:55:07;;;;;;;30.17;16.10;;;;;;;;;;4999893;28;20471;-85
2024/01/19 03:57:34;;;;;;;33.57;15.60;;;;;;;;;;4994766;28;20604;-84
2024/01/19 04:00:01;;;;;;;31.70;15.20;;;;;;;;;;5012256;28;20483;-85
2024/01/19 04:02:28;;;;;;;29.33;15.20;;;;;;;;;;5011812;28;20485;-84
2024/01/19 04:04:56;;;;;;;27.63;15.33;;;;;;;;;;5011316;28;20461;-85
2024/01/19 04:07:23;;;;;;;30.30;17.67;;;;;;;;;;5014431;28;20604;-83
2024/01/19 04:09:50;;;;;;;28.67;16.10;;;;;;;;;;5014894;28;20501;-84
2024/01/19 04:12:18;;;;;;;28.73;15.57;;;;;;;;;;5015248;28;20442;-84
2024/01/19 04:14:45;;;;;;;27.17;15.17;;;;;;;;;;5015045;28;21952;-85
2024/01/19 04:17:13;;;;;;;29.73;15.07;;;;;;;;;;5013886;28;20451;-84
2024/01/19 04:19:41;;;;;;;27.30;15.27;;;;;;;;;;5013593;28;20489;-85
2024/01/19 04:22:08;;;;;;;32.80;15.83;;;;;;;;;;4995847;28;20445;-85
2024/01/19 04:24:35;;;;;;;26.27;15.00;;;;;;;;;;5002115;28;20544;-85
2024/01/19 04:27:02;;;;;;;24.87;15.00;;;;;;;;;;5013871;28;20794;-85
2024/01/19 04:29:29;;;;;;;26.60;14.70;;;;;;;;;;5015063;28;20469;-87
2024/01/19 04:31:56;;;;;;;24.80;14.30;;;;;;;;;;5008980;28;21208;-84
2024/01/19 04:34:23;;;;;;;22.20;12.20;;;;;;;;;;5008438;28;20461;-85
2024/01/19 04:36:50;;;;;;;30.40;15.40;;;;;;;;;;5009366;28;20525;-84
2024/01/19 04:39:17;;;;;;;21.60;12.80;;;;;;;;;;4991558;28;20484;-83
2024/01/19 04:41:45;;;;;;;23.10;12.70;;;;;;;;;;5008312;28;20484;-86
2024/01/19 04:44:12;;;;;;;27.00;14.97;;;;;;;;;;4994458;28;20928;-85
2024/01/19 04:46:39;;;;;;;23.50;12.30;;;;;;;;;;5013465;28;20493;-84
2024/01/19 04:49:07;;;;;;;24.23;14.37;;;;;;;;;;5016779;28;20484;-84
2024/01/19 04:51:35;;;;;;;23.57;13.17;;;;;;;;;;5018315;28;20474;-84
2024/01/19 04:54:02;;;;;;;24.80;14.37;;;;;;;;;;5009366;28;20459;-87
2024/01/19 04:56:29;;;;;;;22.57;13.77;;;;;;;;;;5014183;28;20838;-87
2024/01/19 04:58:56;;;;;;;27.67;15.30;;;;;;;;;;5013287;28;20469;-86
2024/01/19 05:01:23;;;;;;;27.97;14.43;;;;;;;;;;5012719;28;20793;-84
2024/01/19 05:03:50;;;;;;;24.17;14.07;;;;;;;;;;5013588;28;20462;-84
2024/01/19 05:06:18;;;;;;;27.10;13.87;;;;;;;;;;5014770;28;20476;-85
2024/01/19 05:08:46;;;;;;;24.90;13.60;;;;;;;;;;4990625;28;20465;-85
2024/01/19 05:11:13;;;;;;;28.93;13.13;;;;;;;;;;5013421;28;20450;-84
2024/01/19 05:13:41;;;;;;;21.87;12.77;;;;;;;;;;4993766;28;20516;-84
2024/01/19 05:16:08;;;;;;;23.00;12.00;;;;;;;;;;5010401;28;20473;-83
2024/01/19 05:18:35;;;;;;;23.70;12.10;;;;;;;;;;4992809;28;20987;-85
2024/01/19 05:21:03;;;;;;;23.37;11.80;;;;;;;;;;5012503;28;20503;-86
2024/01/19 05:23:31;;;;;;;18.57;9.47;;;;;;;;;;5012447;28;20465;-86
2024/01/19 05:25:58;;;;;;;22.03;13.27;;;;;;;;;;5009577;28;20520;-85
2024/01/19 05:28:25;;;;;;;16.43;10.10;;;;;;;;;;5011661;28;21257;-85
2024/01/19 05:30:52;;;;;;;20.10;11.57;;;;;;;;;;5009068;28;21205;-86
2024/01/19 05:33:19;;;;;;;19.23;11.80;;;;;;;;;;5011654;28;20815;-85
2024/01/19 05:35:47;;;;;;;22.70;10.93;;;;;;;;;;5011969;28;20948;-84
2024/01/19 05:38:14;;;;;;;22.67;12.23;;;;;;;;;;5013370;28;21179;-84
2024/01/19 05:40:41;;;;;;;17.13;11.90;;;;;;;;;;4993233;28;20486;-84
2024/01/19 05:43:08;;;;;;;17.23;10.90;;;;;;;;;;5012129;28;20472;-85
2024/01/19 05:45:36;;;;;;;18.40;10.53;;;;;;;;;;5008315;28;20541;-85
2024/01/19 05:48:03;;;;;;;14.70;9.70;;;;;;;;;;4992952;28;20453;-84
2024/01/19 05:50:30;;;;;;;16.20;11.10;;;;;;;;;;5013640;28;20943;-85
2024/01/19 05:52:57;;;;;;;20.90;10.97;;;;;;;;;;5010213;28;20881;-87
2024/01/19 05:55:24;;;;;;;19.90;11.73;;;;;;;;;;5013286;28;20457;-84
2024/01/19 05:57:51;;;;;;;22.43;11.30;;;;;;;;;;4994569;28;20462;-86
2024/01/19 06:00:18;;;;;;;14.80;8.50;;;;;;;;;;5003263;28;20480;-86
2024/01/19 06:02:45;;;;;;;18.60;9.93;;;;;;;;;;5016464;28;20992;-85
2024/01/19 06:05:13;;;;;;;21.40;9.37;;;;;;;;;;5012139;28;20478;-86
2024/01/19 06:07:40;;;;;;;14.80;9.97;;;;;;;;;;5013724;28;20480;-86
2024/01/19 06:10:07;;;;;;;16.43;9.60;;;;;;;;;;5009339;28;20486;-88
2024/01/19 06:12:34;;;;;;;14.70;9.20;;;;;;;;;;5013254;28;20459;-84
2024/01/19 06:15:01;;;;;;;13.30;8.87;;;;;;;;;;5010391;28;20460;-85
2024/01/19 06:17:29;;;;;;;14.40;9.97;;;;;;;;;;5011418;28;20462;-87
2024/01/19 06:19:56;;;;;;;14.87;9.30;;;;;;;;;;4992607;28;20582;-86
2024/01/19 06:22:24;;;;;;;13.77;9.10;;;;;;;;;;4994152;28;21027;-85
2024/01/19 06:24:51;;;;;;;21.20;10.80;;;;;;;;;;5010654;28;20486;-84
2024/01/19 06:27:21;;;;;;;21.00;11.50;;;;;;;;;;5000995;28;20486;-84
2024/01/19 06:29:51;;;;;;;16.63;9.90;;;;;;;;;;5018337;28;20608;-84
2024/01/19 06:32:33;;;;;;;16.50;10.10;;;;;;;;;;4998754;28;20440;-84
2024/01/19 06:35:00;;;;;;;16.60;10.17;;;;;;;;;;5000348;28;20455;-86
2024/01/19 06:37:28;;;;;;;20.33;10.13;;;;;;;;;;5016264;28;20472;-85
2024/01/19 06:39:55;;;;;;;17.57;9.70;;;;;;;;;;5014309;28;20484;-83
2024/01/19 06:42:22;;;;;;;16.60;10.07;;;;;;;;;;5017675;28;20441;-85
2024/01/19 06:44:49;;;;;;;19.30;9.87;;;;;;;;;;5009867;28;21548;-83
2024/01/19 06:47:19;;;;;;;18.03;9.00;;;;;;;;;;5011760;28;21193;-86
2024/01/19 06:49:47;;;;;;;15.03;9.60;;;;;;;;;;5016341;28;20511;-84
2024/01/19 06:52:15;;;;;;;24.90;11.03;;;;;;;;;;5021831;28;20459;-86
2024/01/19 06:54:42;;;;;;;20.20;10.50;;;;;;;;;;5023032;28;20456;-83
2024/01/19 06:57:10;;;;;;;14.83;9.60;;;;;;;;;;5020578;28;20555;-84
2024/01/19 06:59:37;;;;;;;16.23;9.67;;;;;;;;;;5014760;28;20478;-85
2024/01/19 07:02:04;;;;;;;18.17;10.20;;;;;;;;;;5026517;28;20451;-86
2024/01/19 07:04:32;;;;;;;20.00;11.27;;;;;;;;;;5042288;28;20451;-86
2024/01/19 07:06:59;;;;;;;17.23;10.67;;;;;;;;;;5046388;28;21582;-87
2024/01/19 07:09:29;;;;;;;16.30;9.70;;;;;;;;;;5008487;28;20473;-85
2024/01/19 07:11:56;;;;;;;27.33;10.13;;;;;;;;;;5033508;28;20451;-85
2024/01/19 07:14:25;;;;;;;15.63;9.20;;;;;;;;;;5028214;28;20451;-85
2024/01/19 07:16:52;;;;;;;19.70;10.60;;;;;;;;;;5032941;28;20536;-84
2024/01/19 07:19:19;;;;;;;26.73;10.77;;;;;;;;;;5014994;28;20505;-84
2024/01/19 07:21:46;;;;;;;15.10;8.50;;;;;;;;;;5033099;28;20500;-85
2024/01/19 07:24:13;;;;;;;18.00;9.47;;;;;;;;;;5033654;28;20456;-86
2024/01/19 07:26:41;;;;;;;19.40;10.50;;;;;;;;;;5032595;28;20521;-86
2024/01/19 07:29:09;;;;;;;20.53;8.43;;;;;;;;;;5033949;28;20454;-85
2024/01/19 07:31:36;;;;;;;16.10;10.10;;;;;;;;;;5027314;28;20498;-84
2024/01/19 07:34:04;;;;;;;18.70;10.03;;;;;;;;;;5007439;28;20852;-81
2024/01/19 07:36:31;;;;;;;15.60;9.67;;;;;;;;;;5020830;28;20489;-82
2024/01/19 07:38:58;;;;;;;15.93;10.17;;;;;;;;;;4997882;28;20476;-84
2024/01/19 07:41:26;;;;;;;18.80;9.80;;;;;;;;;;5001704;28;20469;-84
2024/01/19 07:43:54;;;;;;;13.70;8.53;;;;;;;;;;5017492;28;20520;-82
2024/01/19 07:46:21;;;;;;;19.50;9.73;;;;;;;;;;5018394;28;20523;-85
2024/01/19 07:48:49;;;;;;;16.23;9.40;;;;;;;;;;5023915;28;20434;-84
2024/01/19 07:51:16;;;;;;;18.60;11.77;;;;;;;;;;5023984;28;20444;-85
2024/01/19 07:53:44;;;;;;;24.23;10.40;;;;;;;;;;5002619;28;20470;-84
2024/01/19 07:56:11;;;;;;;14.93;8.73;;;;;;;;;;5021741;28;20501;-84
2024/01/19 07:58:38;;;;;;;16.60;9.63;;;;;;;;;;5020463;28;20458;-84
2024/01/19 08:01:05;;;;;;;15.07;8.83;;;;;;;;;;5016816;28;20501;-84
2024/01/19 08:03:33;;;;;;;13.80;8.93;;;;;;;;;;5017169;28;20450;-84
2024/01/19 08:06:00;;;;;;;15.10;8.63;;;;;;;;;;5017090;28;20470;-86
2024/01/19 08:08:27;;;;;;;14.00;8.07;;;;;;;;;;5022926;28;20515;-83
2024/01/19 08:10:58;;;;;;;14.27;8.83;;;;;;;;;;4999952;28;20488;-86
2024/01/19 08:13:30;;;;;;;17.10;8.20;;;;;;;;;;5003016;28;20785;-84
2024/01/19 08:15:58;;;;;;;17.37;9.00;;;;;;;;;;5002080;28;20456;-84
2024/01/19 08:18:34;;;;;;;13.53;8.80;;;;;;;;;;5000997;28;20537;-84
2024/01/19 08:24:38;;;;;;;20.33;10.90;;;;;;;;;;5020804;28;21235;-84
2024/01/19 08:27:46;;;;;;;20.70;10.00;;;;;;;;;;5022515;28;21141;-85
2024/01/19 08:30:47;;;;;;;18.07;9.93;;;;;;;;;;5019914;28;20491;-86
2024/01/19 08:33:25;;;;;;;19.90;9.27;;;;;;;;;;5019172;28;20559;-86
2024/01/19 08:36:00;;;;;;;15.13;8.13;;;;;;;;;;5005989;28;20503;-87
2024/01/19 08:38:55;;;;;;;21.33;8.90;;;;;;;;;;5021546;28;20462;-84
2024/01/19 08:41:36;;;;;;;14.30;7.60;;;;;;;;;;5017803;28;20470;-84
2024/01/19 08:44:23;;;;;;;17.67;9.87;;;;;;;;;;4997063;28;20535;-85
2024/01/19 08:47:20;;;;;;;15.60;10.10;;;;;;;;;;5021013;28;20573;-85
2024/01/19 08:49:50;;;;;;;16.50;9.13;;;;;;;;;;5027618;28;20493;-89
2024/01/19 08:52:20;;;;;;;22.47;10.57;;;;;;;;;;5007813;28;20457;-85
2024/01/19 08:54:56;;;;;;;16.20;9.80;;;;;;;;;;5029686;28;20453;-82
2024/01/19 08:57:52;;;;;;;21.43;9.97;;;;;;;;;;5029947;28;20454;-85
2024/01/19 09:00:27;;;;;;;17.40;10.93;;;;;;;;;;5008621;28;21234;-83
2024/01/19 09:02:54;;;;;;;18.67;11.37;;;;;;;;;;5029430;28;20564;-84
2024/01/19 09:05:51;;;;;;;;;;;;;;;;;;;;;
2024/01/19 09:08:26;;;;;;;17.97;10.30;;;;;;;;;;5027541;28;20930;-85
2024/01/19 09:11:01;;;;;;;21.63;11.03;;;;;;;;;;5025194;28;20553;-84
2024/01/19 09:13:28;;;;;;;20.70;12.20;;;;;;;;;;5035355;28;20488;-84
2024/01/19 09:16:08;;;;;;;24.57;10.90;;;;;;;;;;5031671;28;20529;-87
2024/01/19 09:18:49;;;;;;;17.70;10.70;;;;;;;;;;5009636;28;20467;-85
2024/01/19 09:21:47;;;;;;;21.63;11.37;;;;;;;;;;5030629;28;20442;-85
2024/01/19 09:24:21;;;;;;;21.03;11.90;;;;;;;;;;5038362;28;20476;-84
2024/01/19 09:26:48;;;;;;;20.00;11.33;;;;;;;;;;5028727;28;20517;-86
2024/01/19 09:29:16;;;;;;;17.33;11.23;;;;;;;;;;5021616;28;20477;-84
2024/01/19 09:31:55;;;;;;;14.90;10.10;;;;;;;;;;5020994;28;20523;-86
2024/01/19 09:34:24;;;;;;;21.10;12.30;;;;;;;;;;5024826;28;20449;-86
2024/01/19 09:36:57;;;;;;;19.63;10.43;;;;;;;;;;5023361;28;20812;-83
2024/01/19 09:39:24;;;;;;;18.03;11.93;;;;;;;;;;5022219;28;20543;-86
2024/01/19 09:41:55;;;;;;;20.70;11.50;;;;;;;;;;5026500;28;20500;-86
2024/01/19 09:44:24;;;;;;;22.27;11.70;;;;;;;;;;5026443;28;20464;-85
2024/01/19 09:46:51;;;;;;;20.90;12.97;;;;;;;;;;5022581;28;20515;-83
2024/01/19 09:49:30;;;;;;;17.37;10.93;;;;;;;;;;5025468;28;20548;-85
2024/01/19 09:52:02;;;;;;;25.80;12.10;;;;;;;;;;5022118;28;21015;-85
2024/01/19 09:54:34;;;;;;;20.90;11.03;;;;;;;;;;5006284;28;20490;-86
2024/01/19 09:57:03;;;;;;;19.30;11.70;;;;;;;;;;5028249;28;20464;-84
2024/01/19 09:59:31;;;;;;;21.00;11.67;;;;;;;;;;5023540;28;20475;-85
2024/01/19 10:01:59;;;;;;;25.23;12.27;;;;;;;;;;5029474;28;20466;-86
2024/01/19 10:04:27;;;;;;;27.60;12.20;;;;;;;;;;5026117;28;20581;-85
2024/01/19 10:07:12;;;;;;;31.50;14.17;;;;;;;;;;5030813;28;20493;-86
2024/01/19 10:10:08;;;;;;;24.17;12.37;;;;;;;;;;5026942;28;21972;-85
2024/01/19 10:13:20;;;;;;;23.57;13.90;;;;;;;;;;5028439;28;20540;-86
2024/01/19 10:16:07;;;;;;;22.30;11.83;;;;;;;;;;5015096;28;21641;-84
2024/01/19 10:18:39;;;;;;;32.33;14.80;;;;;;;;;;5016178;28;20450;-85
2024/01/19 10:21:27;;;;;;;23.27;13.47;;;;;;;;;;5027998;28;20544;-86
2024/01/19 10:24:09;;;;;;;27.03;13.47;;;;;;;;;;5007836;28;20457;-86
2024/01/19 10:26:38;;;;;;;22.70;13.50;;;;;;;;;;5012930;28;20452;-85
2024/01/19 10:29:26;;;;;;;28.03;13.70;;;;;;;;;;5033507;28;20487;-85
2024/01/19 10:31:54;;;;;;;27.70;14.10;;;;;;;;;;5033006;28;20475;-85
2024/01/19 10:34:30;;;;;;;21.37;12.93;;;;;;;;;;5034207;28;20460;-84
2024/01/19 10:36:59;;;;;;;23.30;13.27;;;;;;;;;;5025873;28;20502;-83
2024/01/19 10:39:32;;;;;;;25.00;13.10;;;;;;;;;;5026546;28;20486;-85
2024/01/19 10:42:25;;;;;;;26.00;14.50;;;;;;;;;;5011969;28;20456;-85
2024/01/19 10:44:54;;;;;;;24.70;13.00;;;;;;;;;;5010107;28;20448;-86
2024/01/19 10:47:39;;;;;;;23.53;13.93;;;;;;;;;;5026255;28;20512;-87
2024/01/19 10:50:14;;;;;;;24.07;12.30;;;;;;;;;;5030115;28;20484;-84
2024/01/19 10:52:45;;;;;;;21.47;13.80;;;;;;;;;;5008147;28;20656;-85
2024/01/19 10:55:18;;;;;;;23.17;12.90;;;;;;;;;;4996877;28;20454;-87
2024/01/19 11:01:15;;;;;;;24.67;13.77;;;;;;;;;;5034833;28;20517;-86
2024/01/19 11:03:56;;;;;;;20.70;12.73;;;;;;;;;;5025762;28;20455;-85
2024/01/19 11:06:27;;;;;;;32.17;14.03;;;;;;;;;;5027044;28;20504;-84
2024/01/19 11:09:08;;;;;;;29.07;14.50;;;;;;;;;;5029259;28;20529;-85
2024/01/19 11:11:42;;;;;;;26.20;13.80;;;;;;;;;;5038492;28;20654;-86
2024/01/19 11:14:31;;;;;;;29.13;13.93;;;;;;;;;;5047749;28;20796;-86
2024/01/19 11:17:06;;;;;;;22.77;12.30;;;;;;;;;;5041245;28;20452;-86
2024/01/19 11:19:35;;;;;;;20.37;12.50;;;;;;;;;;5040650;28;20472;-86
2024/01/19 11:22:05;;;;;;;22.83;12.70;;;;;;;;;;5043364;28;20458;-88
2024/01/19 11:24:53;;;;;;;23.17;14.07;;;;;;;;;;5040908;28;20448;-87
2024/01/19 11:27:29;;;;;;;23.10;13.70;;;;;;;;;;5038725;28;20469;-86
2024/01/19 11:30:28;;;;;;;26.43;14.27;;;;;;;;;;5036776;28;20507;-86
2024/01/19 11:32:56;;;;;;;21.70;13.60;;;;;;;;;;4985171;28;21613;-84
2024/01/19 11:35:51;;;;;;;20.40;13.53;;;;;;;;;;4979251;28;20534;-86
2024/01/19 11:38:45;;;;;;;23.97;13.37;;;;;;;;;;5021095;28;20459;-86
2024/01/19 11:41:38;;;;;;;21.53;12.07;;;;;;;;;;5031686;28;20513;-86
2024/01/19 11:44:54;;;;;;;24.17;12.70;;;;;;;;;;5031545;28;20442;-85
2024/01/19 11:47:40;;;;;;;19.50;13.83;;;;;;;;;;5001718;28;22018;-84
2024/01/19 11:50:16;;;;;;;20.93;12.50;;;;;;;;;;5029899;28;20609;-86
2024/01/19 11:52:58;;;;;;;21.07;12.83;;;;;;;;;;5028322;28;20487;-86
2024/01/19 11:56:03;;;;;;;22.57;10.93;;;;;;;;;;5029971;28;20435;-85
2024/01/19 11:58:32;;;;;;;23.40;12.50;;;;;;;;;;5035307;28;20459;-86
2024/01/19 12:01:15;;;;;;;21.60;12.90;;;;;;;;;;5031283;28;20503;-87
2024/01/19 12:04:19;;;;;;;21.60;12.63;;;;;;;;;;5029682;28;20782;-84
2024/01/19 12:06:47;;;;;;;16.13;10.83;;;;;;;;;;5015042;28;20476;-87
2024/01/19 12:09:19;;;;;;;20.33;12.00;;;;;;;;;;5035297;28;20548;-86
2024/01/19 12:11:56;;;;;;;20.80;10.67;;;;;;;;;;5015335;28;20521;-85
2024/01/19 12:17:48;;;;;;;16.90;11.67;;;;;;;;;;5029938;28;20456;-85
2024/01/19 12:20:25;;;;;;;21.50;10.83;;;;;;;;;;5015774;28;20488;-85
2024/01/19 12:23:01;;;;;;;17.67;12.10;;;;;;;;;;5034960;28;20469;-85
2024/01/19 12:25:41;;;;;;;19.83;11.30;;;;;;;;;;5034751;28;20621;-87
2024/01/19 12:28:18;;;;;;;20.10;13.23;;;;;;;;;;5014957;28;20481;-86
2024/01/19 12:30:48;;;;;;;22.60;13.23;;;;;;;;;;5014997;28;20475;-85
2024/01/19 12:33:24;;;;;;;19.90;12.97;;;;;;;;;;5032318;28;21261;-86
2024/01/19 12:36:06;;;;;;;19.67;13.70;;;;;;;;;;5033078;28;20455;-83
2024/01/19 12:39:11;;;;;;;26.03;13.00;;;;;;;;;;5036837;28;20491;-86
2024/01/19 12:41:45;;;;;;;27.73;12.87;;;;;;;;;;5037186;28;20462;-85
2024/01/19 12:44:25;;;;;;;20.27;12.93;;;;;;;;;;5020075;28;20454;-86
2024/01/19 12:47:08;;;;;;;25.60;13.60;;;;;;;;;;5019642;28;20534;-85
2024/01/19 12:49:47;;;;;;;25.30;13.37;;;;;;;;;;5028903;28;20471;-84
2024/01/19 12:52:32;;;;;;;24.97;14.00;;;;;;;;;;5035488;28;20730;-87
2024/01/19 12:55:03;;;;;;;25.33;14.03;;;;;;;;;;5029539;28;20446;-82
2024/01/19 12:57:48;;;;;;;22.03;12.40;;;;;;;;;;5020807;28;20439;-87
2024/01/19 13:00:23;;;;;;;25.90;13.47;;;;;;;;;;5034890;28;20475;-83
2024/01/19 13:05:54;;;;;;;19.33;12.70;;;;;;;;;;5022416;28;20696;-86
2024/01/19 13:08:38;;;;;;;21.87;12.67;;;;;;;;;;5018518;28;20482;-84
2024/01/19 13:11:26;;;;;;;18.77;12.27;;;;;;;;;;5035596;28;20460;-86
2024/01/19 13:14:09;;;;;;;21.43;12.20;;;;;;;;;;5014118;28;20464;-85
2024/01/19 13:17:03;;;;;;;18.87;12.10;;;;;;;;;;4990754;28;20424;-85
2024/01/19 13:19:51;;;;;;;21.07;11.53;;;;;;;;;;5011217;28;20478;-84
2024/01/19 13:22:40;;;;;;;21.63;12.57;;;;;;;;;;5015064;28;20462;-85
2024/01/19 13:25:31;;;;;;;21.77;11.27;;;;;;;;;;5016214;28;20455;-86
2024/01/19 13:34:06;;;;;;;19.47;10.67;;;;;;;;;;4999828;28;20507;-87
2024/01/19 13:36:52;;;;;;;19.63;10.20;;;;;;;;;;5003548;28;20417;-85
2024/01/19 13:40:04;;;;;;;19.53;11.63;;;;;;;;;;4989593;28;20467;-85
2024/01/19 13:42:38;;;;;;;17.63;10.33;;;;;;;;;;4981862;28;20525;-82
2024/01/19 13:45:37;;;;;;;28.10;11.90;;;;;;;;;;4975322;28;20424;-85
2024/01/19 13:48:18;;;;;;;22.53;11.70;;;;;;;;;;4995274;28;20567;-83
2024/01/19 13:50:46;;;;;;;20.80;10.33;;;;;;;;;;4997128;28;20494;-85
2024/01/19 13:53:15;;;;;;;22.73;12.20;;;;;;;;;;4993348;28;20480;-85
2024/01/19 13:55:43;;;;;;;19.27;11.63;;;;;;;;;;4988392;28;20592;-86
2024/01/19 13:58:11;;;;;;;18.90;10.33;;;;;;;;;;4982403;28;20460;-85
2024/01/19 14:00:39;;;;;;;20.53;12.63;;;;;;;;;;4980599;28;20507;-84
2024/01/19 14:03:08;;;;;;;18.33;11.90;;;;;;;;;;4979671;28;20576;-85
2024/01/19 14:05:40;;;;;;;19.60;12.97;;;;;;;;;;4992567;28;20452;-86
2024/01/19 14:08:09;;;;;;;21.23;10.63;;;;;;;;;;4979543;28;20492;-85
2024/01/19 14:10:37;;;;;;;20.50;11.60;;;;;;;;;;4979932;28;20481;-82
2024/01/19 14:13:07;;;;;;;21.03;11.70;;;;;;;;;;4988404;28;20531;-84
2024/01/19 14:15:39;;;;;;;19.83;10.50;;;;;;;;;;4979270;28;20487;-84
2024/01/19 14:18:11;;;;;;;20.13;9.90;;;;;;;;;;4973800;28;20456;-86
2024/01/19 14:20:49;;;;;;;18.23;12.20;;;;;;;;;;4982434;28;20472;-84
2024/01/19 14:23:16;;;;;;;18.33;9.43;;;;;;;;;;4979796;28;20506;-84
2024/01/19 14:25:46;;;;;;;21.57;11.97;;;;;;;;;;4977843;28;20567;-83
2024/01/19 14:28:18;;;;;;;24.40;12.97;;;;;;;;;;4972226;28;20499;-82
2024/01/19 14:30:48;;;;;;;20.60;10.93;;;;;;;;;;4983386;28;20903;-84
2024/01/19 14:33:15;;;;;;;24.13;11.27;;;;;;;;;;5000928;28;20445;-85
2024/01/19 14:35:45;;;;;;;17.30;10.00;;;;;;;;;;4983612;28;20537;-86
2024/01/19 14:38:12;;;;;;;15.93;10.40;;;;;;;;;;4984025;28;20443;-85
2024/01/19 14:40:40;;;;;;;19.13;10.50;;;;;;;;;;4995691;28;20511;-84
2024/01/19 14:43:09;;;;;;;17.50;11.00;;;;;;;;;;4979479;28;20494;-86
2024/01/19 14:45:41;;;;;;;18.90;11.00;;;;;;;;;;4985742;28;20556;-87
2024/01/19 14:48:11;;;;;;;14.47;9.67;;;;;;;;;;4990124;28;20524;-84
2024/01/19 14:50:41;;;;;;;15.77;10.90;;;;;;;;;;4983122;28;20491;-83
2024/01/19 14:53:08;;;;;;;19.20;11.00;;;;;;;;;;4980455;28;20491;-86
2024/01/19 14:55:37;;;;;;;18.00;10.67;;;;;;;;;;4977521;28;20503;-84
2024/01/19 14:58:05;;;;;;;17.57;10.20;;;;;;;;;;4982771;28;20448;-86
2024/01/19 15:00:32;;;;;;;12.77;8.77;;;;;;;;;;4996600;28;20542;-85
2024/01/19 15:03:12;;;;;;;14.50;9.17;;;;;;;;;;4988917;28;20503;-84
2024/01/19 15:05:42;;;;;;;14.10;10.03;;;;;;;;;;4979022;28;20465;-85
2024/01/19 15:08:18;;;;;;;15.93;9.43;;;;;;;;;;4990484;28;20465;-83